Noord Nederlandse Zweefvliegclub

NL-0036 · Groninga, Paesi Bassi

Storia di METAR NL-0036 · Noord Nederlandse Zweefvliegclub

Di seguito sono riportati i METAR degli ultimi giorni. Seleziona un anno per sfogliare i METAR più vecchi, dall'anno 2007 in poi.

3 dicembre 2022

Tempo Codice Tempo metereologico Temp. Vista Base nuvolosa Vento METAR/SPECI
22:20
U
0 °C 0 m - 070° 070° 7 kt METAR ETWM 032120Z AUTO 07007KT //// // ////// M00/M04 Q1020 ///
21:20
U
0 °C 0 m - 070° 070° 7 kt METAR ETWM 032020Z AUTO 07007KT //// // ////// M00/M04 Q1021 ///
20:20
U
0 °C 0 m - 070° 070° 7 kt METAR ETWM 031920Z AUTO 07007KT //// // ////// M00/M03 Q1021 ///
19:20
U
0 °C 0 m - 060° 060° 8 kt METAR ETWM 031820Z AUTO 06008KT //// // ////// M00/M04 Q1021 ///
18:20
U
0 °C 0 m - 080° 080° 7 kt METAR ETWM 031720Z AUTO 08007KT //// // ////// M00/M04 Q1021 ///
17:20
U
0 °C 0 m - 080° 080° 6 kt METAR ETWM 031620Z AUTO 08006KT //// // ////// M00/M03 Q1021 ///
16:20
U
0 °C 0 m - 070° 070° 6 kt METAR ETWM 031520Z AUTO 07006KT //// // ////// M00/M04 Q1021 ///
15:20
U
0 °C 0 m - 080° 080° 8 kt METAR ETWM 031420Z AUTO 08008KT //// // ////// 00/M04 Q1021 ///
14:20
U
0 °C 0 m - 070° 070° 6 kt METAR ETWM 031320Z AUTO 07006KT //// // ////// 00/M03 Q1022 ///
13:20
U
0 °C 0 m - 050° 050° 8 kt METAR ETWM 031220Z AUTO 05008KT //// // ////// 00/M03 Q1022 ///
12:20
U
0 °C 0 m - 070° 070° 8 kt METAR ETWM 031120Z AUTO 07008KT //// // ////// 00/M03 Q1023 ///
11:20
U
0 °C 0 m - 070° 070° 7 kt METAR ETWM 031020Z AUTO 07007KT //// // ////// 00/M02 Q1023 ///
10:20
U
0 °C 0 m - 060° 060° 7 kt METAR ETWM 030920Z AUTO 06007KT //// // ////// 00/M02 Q1023 ///
09:20
U
0 °C 0 m - 060° 060° 10 kt METAR ETWM 030820Z AUTO 06010KT //// // ////// 00/M03 Q1024 ///
08:20
U
0 °C 0 m - 060° 060° 10 kt METAR ETWM 030720Z AUTO 06010KT //// // ////// 00/M03 Q1024 ///
07:20
U
1 °C 0 m - 070° 070° 9 kt METAR ETWM 030620Z AUTO 07009KT //// // ////// 01/M03 Q1023 ///
06:20
U
1 °C 0 m - 060° 060° 8 kt METAR ETWM 030520Z AUTO 06008KT //// // ////// 01/M02 Q1024 ///
05:20
U
1 °C 0 m - 070° 070° 8 kt METAR ETWM 030420Z AUTO 07008KT //// // ////// 01/M01 Q1024 ///
04:20
U
2 °C 0 m - 060° 060° 6 kt METAR ETWM 030320Z AUTO 06006KT //// // ////// 02/M00 Q1024 ///
03:20
U
2 °C 0 m - 070° 070° 6 kt METAR ETWM 030220Z AUTO 07006KT //// // ////// 02/M00 Q1024 ///
02:20
U
2 °C 0 m - 050° 050° 7 kt METAR ETWM 030120Z AUTO 05007KT //// // ////// 02/M00 Q1024 ///
01:20
U
2 °C 0 m - 030° 030° 7 kt METAR ETWM 030020Z AUTO 03007KT //// // ////// 02/M00 Q1024 ///
00:20
U
2 °C 0 m - 040° 040° 7 kt METAR ETWM 022320Z AUTO 04007KT //// // ////// 02/M00 Q1025 ///

2 dicembre 2022

Tempo Codice Tempo metereologico Temp. Vista Base nuvolosa Vento METAR/SPECI
23:20
U
2 °C 0 m - 030° 030° 8 kt METAR ETWM 022220Z AUTO 03008KT //// // ////// 02/M01 Q1025 ///
22:20
U
2 °C 0 m - 030° 030° 9 kt METAR ETWM 022120Z AUTO 03009KT //// // ////// 02/M01 Q1025 ///
21:20
U
2 °C 0 m - 060° 060° 8 kt METAR ETWM 022020Z AUTO 06008KT //// // ////// 02/M01 Q1025 ///
20:20
U
2 °C 0 m - 050° 050° 9 kt METAR ETWM 021920Z AUTO 05009KT //// // ////// 02/M02 Q1026 ///
19:20
U
2 °C 0 m - 060° 060° 10 kt METAR ETWM 021820Z AUTO 06010KT //// // ////// 02/M02 Q1026 ///
18:20
U
2 °C 0 m - 060° 060° 9 kt METAR ETWM 021720Z AUTO 06009KT //// // ////// 02/M01 Q1026 ///
17:20
U
2 °C 0 m - 070° 070° 9 kt METAR ETWM 021620Z AUTO 07009KT //// // ////// 02/M01 Q1026 ///
16:20
U
2 °C 0 m - 050° 050° 8 kt METAR ETWM 021520Z AUTO 05008KT //// // ////// 02/M01 Q1025 ///
15:20
U
2 °C 0 m - 060° 060° 9 kt METAR ETWM 021420Z AUTO 06009KT //// // ////// 02/M00 Q1025 ///
14:20
U
2 °C 0 m - 060° 060° 10 kt METAR ETWM 021320Z AUTO 06010KT //// // ////// 02/M00 Q1025 ///
13:20
U
2 °C 0 m - 050° 050° 10 kt METAR ETWM 021220Z AUTO 05010KT //// // ////// 02/M00 Q1025 ///
12:20
U
1 °C 0 m - 050° 050° 10 kt METAR ETWM 021120Z AUTO 05010KT //// // ////// 01/M00 Q1025 ///
11:20
I
1 °C 4,8 km 600 ft 050° 050° 9 kt METAR ETWM 021020Z 05009KT 4800 -DZ BR FEW004 BKN006 01/M00 Q1026 YLO
10:50
I
1 °C 5 km 600 ft 060° 060° 7 kt METAR ETWM 020950Z 06007KT 5000 BR FEW004 BKN006 01/00 Q1026 YLO
10:20
I
1 °C 4,5 km 600 ft 040° 040° 8 kt METAR ETWM 020920Z 04008KT 4500 -DZ BR SCT004 BKN006 01/00 Q1026 YLO
09:48
I
1 °C 4,2 km 600 ft 050° 050° 7 kt METAR ETWM 020848Z 05007KT 4200 -DZ BR SCT004 BKN006 01/01 Q1026 YLO
09:20
I
1 °C 5 km 800 ft 050° 050° 5 kt METAR ETWM 020820Z 05005KT 5000 BR SCT006 BKN008 01/00 Q1026 GRN
08:20
M
2 °C 6 km 1.000 ft 060° 060° 5 kt METAR ETWM 020720Z 06005KT 6000 SCT008 BKN010 02/00 Q1025 GRN
07:20
I
2 °C 5 km 800 ft 050° 050° 5 kt METAR ETWM 020620Z 05005KT 5000 BR BKN008 02/00 Q1025 GRN
06:20
I
2 °C 6 km 800 ft 040° 040° 7 kt METAR ETWM 020520Z 04007KT 6000 BKN008 02/00 Q1025 GRN
05:20
U
2 °C 0 m - 040° 040° 6 kt METAR ETWM 020420Z AUTO 04006KT //// // ////// 02/01 Q1025 ///
04:20
U
2 °C 0 m - 040° 040° 4 kt METAR ETWM 020320Z AUTO 04004KT //// // ////// 02/01 Q1026 ///
03:20
U
2 °C 0 m - 050° 050° 7 kt METAR ETWM 020220Z AUTO 05007KT //// // ////// 02/01 Q1026 ///
02:20
U
2 °C 0 m - 030° 030° 6 kt METAR ETWM 020120Z AUTO 03006KT //// // ////// 02/01 Q1026 ///
01:20
U
2 °C 0 m - 030° 030° 5 kt METAR ETWM 020020Z AUTO 03005KT //// // ////// 02/00 Q1027 ///
00:20
U
3 °C 0 m - 040° 040° 6 kt METAR ETWM 012320Z AUTO 04006KT //// // ////// 03/00 Q1027 ///

1 dicembre 2022

Tempo Codice Tempo metereologico Temp. Vista Base nuvolosa Vento METAR/SPECI
23:20
U
3 °C 0 m - 080° 080° 5 kt METAR ETWM 012220Z AUTO 08005KT //// // ////// 03/01 Q1027 ///
22:20
U
3 °C 0 m - 070° 070° 3 kt METAR ETWM 012120Z AUTO 07003KT //// // ////// 03/02 Q1027 ///
21:20
U
4 °C 0 m - 060° 060° 4 kt METAR ETWM 012020Z AUTO 06004KT //// // ////// 04/02 Q1028 ///
20:20
U
4 °C 0 m - 060° 060° 3 kt METAR ETWM 011920Z AUTO 06003KT //// // ////// 04/02 Q1028 ///
19:20
U
4 °C 0 m - 060° 060° 4 kt METAR ETWM 011820Z AUTO 06004KT //// // ////// 04/02 Q1027 ///
18:20
U
4 °C 0 m - 050° 050° 4 kt METAR ETWM 011720Z AUTO 05004KT //// // ////// 04/02 Q1027 ///
17:20
U
4 °C 0 m - 030° 030° 4 kt METAR ETWM 011620Z AUTO 03004KT //// // ////// 04/03 Q1027 ///
16:20
I
5 °C 4,2 km 1.400 ft 030° 030° 4 kt METAR ETWM 011520Z 03004KT 4200 BR FEW009 BKN014 05/03 Q1027 GRN
16:01
I
5 °C 4,2 km 1.400 ft 030° 030° 3 kt METAR ETWM 011501Z 03003KT 4200 BR SCT007 BKN014 05/03 Q1027 GRN
15:20
I
5 °C 3,8 km 700 ft 030° 030° 4 kt METAR ETWM 011420Z 03004KT 3800 BR BKN007 05/04 Q1027 GRN
14:20
I
5 °C 4 km 800 ft 040° 040° 4 kt METAR ETWM 011320Z 04004KT 4000 BR SCT006 BKN008 05/04 Q1027 GRN
13:20
I
5 °C 3,8 km 900 ft 050° 050° 5 kt METAR ETWM 011220Z 05005KT 3800 BR FEW003 SCT006 BKN009 05/04 Q1027 GRN
12:20
L
5 °C 4,5 km 400 ft 030° 030° 4 kt METAR ETWM 011120Z 03004KT 4500 BR SCT002 BKN004 05/04 Q1028 YLO
11:20
I
5 °C 5 km 500 ft 050° 050° 4 kt METAR ETWM 011020Z 05004KT 5000 BR BKN005 05/04 Q1028 YLO

Noi e le terze parti seguiamo il tuo comportamento su internet con i cookie. Se continui, riteniamo che tu sia d'accordo con la nostra Politica sui cookie.